createdAt,value
2018-06-21T04:28:54.004Z,1003.99
2018-06-21T04:29:55.402Z,1003.94
2018-06-21T04:30:56.784Z,1003.90
2018-06-21T04:31:58.170Z,1003.92
2018-06-21T04:32:59.558Z,1003.93
2018-06-21T04:34:00.944Z,1003.88
2018-06-21T04:35:02.328Z,1003.85
2018-06-21T04:36:03.720Z,1003.83
2018-06-21T04:37:05.118Z,1003.85
2018-06-21T04:38:06.511Z,1003.84
2018-06-21T04:39:07.899Z,1003.82
2018-06-21T04:40:09.291Z,1003.83
2018-06-21T04:41:10.683Z,1003.88
2018-06-21T04:42:12.069Z,1003.90
2018-06-21T04:43:13.461Z,1003.96
2018-06-21T04:44:15.579Z,1003.91
2018-06-21T04:45:16.971Z,1003.93
2018-06-21T04:46:18.374Z,1003.92
2018-06-21T04:47:19.773Z,1003.92
2018-06-21T04:48:21.171Z,1003.88
2018-06-21T04:49:22.565Z,1003.94
2018-06-21T04:50:23.957Z,1003.94
2018-06-21T04:51:25.351Z,1003.96
2018-06-21T04:52:26.750Z,1003.96
2018-06-21T04:53:28.147Z,1003.92
2018-06-21T04:54:29.541Z,1003.88
2018-06-21T04:55:30.932Z,1003.91
2018-06-21T04:56:32.330Z,1003.91
2018-06-21T04:57:33.718Z,1003.89
2018-06-21T04:58:35.112Z,1003.87
2018-06-21T04:59:36.504Z,1003.84
2018-06-21T05:00:37.892Z,1003.82
2018-06-21T05:01:39.300Z,1003.79
2018-06-21T05:02:40.696Z,1003.78
2018-06-21T05:03:42.083Z,1003.73
2018-06-21T05:04:43.502Z,1003.79
2018-06-21T05:05:44.900Z,1003.76
2018-06-21T05:06:46.298Z,1003.78
2018-06-21T05:07:47.693Z,1003.73
2018-06-21T05:08:49.087Z,1003.75
2018-06-21T05:09:50.494Z,1003.77
2018-06-21T05:10:51.882Z,1003.73
2018-06-21T05:11:53.299Z,1003.68
2018-06-21T05:12:54.683Z,1003.68
2018-06-21T05:13:56.081Z,1003.65
2018-06-21T05:14:57.489Z,1003.67
2018-06-21T05:15:58.878Z,1003.66
2018-06-21T05:17:00.304Z,1003.65
2018-06-21T05:18:01.682Z,1003.64
2018-06-21T05:19:03.080Z,1003.65
2018-06-21T05:20:04.468Z,1003.65
2018-06-21T05:21:05.877Z,1003.67
2018-06-21T05:22:07.276Z,1003.70
2018-06-21T05:23:09.522Z,1003.70
2018-06-21T05:24:10.914Z,1003.65
2018-06-21T05:25:12.358Z,1003.61
2018-06-21T05:26:13.710Z,1003.69
2018-06-21T05:27:15.105Z,1003.64
2018-06-21T05:28:16.491Z,1003.63
2018-06-21T05:29:17.890Z,1003.61
2018-06-21T05:30:19.282Z,1003.62
2018-06-21T05:31:20.680Z,1003.65
2018-06-21T05:32:22.077Z,1003.66
2018-06-21T05:33:23.478Z,1003.68
2018-06-21T05:34:24.878Z,1003.70
2018-06-21T05:35:26.277Z,1003.66
2018-06-21T05:36:27.671Z,1003.64
2018-06-21T05:37:29.100Z,1003.60
2018-06-21T05:38:30.477Z,1003.64
2018-06-21T05:39:31.865Z,1003.60
2018-06-21T05:40:33.837Z,1003.59
2018-06-21T05:41:35.220Z,1003.55
2018-06-21T05:42:36.622Z,1003.55
2018-06-21T05:43:38.544Z,1003.52
2018-06-21T05:44:39.941Z,1003.53
2018-06-21T05:45:41.334Z,1003.56
2018-06-21T05:46:42.740Z,1003.60
2018-06-21T05:47:44.136Z,1003.56
2018-06-21T05:48:45.527Z,1003.57
2018-06-21T05:49:46.922Z,1003.59
2018-06-21T05:50:48.330Z,1003.69
2018-06-21T05:51:49.720Z,1003.64
2018-06-21T05:52:51.119Z,1003.65
2018-06-21T05:53:52.512Z,1003.55
2018-06-21T05:54:53.916Z,1003.55
2018-06-21T05:55:55.312Z,1003.51
2018-06-21T05:56:56.708Z,1003.56
2018-06-21T05:57:58.111Z,1003.54
2018-06-21T05:58:59.506Z,1003.57
2018-06-21T06:00:00.901Z,1003.60
2018-06-21T06:01:02.309Z,1003.55
2018-06-21T06:02:03.772Z,1003.54
2018-06-21T06:03:05.120Z,1003.54
2018-06-21T06:04:06.519Z,1003.51
2018-06-21T06:05:07.925Z,1003.42
2018-06-21T06:06:09.329Z,1003.33
2018-06-21T06:07:10.736Z,1003.24
2018-06-21T06:08:12.166Z,1003.18
2018-06-21T06:09:13.523Z,1003.11
2018-06-21T06:10:14.928Z,1003.11
2018-06-21T06:11:16.338Z,1003.12
2018-06-21T06:12:17.746Z,1003.16
2018-06-21T06:13:19.145Z,1003.13
2018-06-21T06:14:21.462Z,1003.10
2018-06-21T06:15:22.855Z,1003.05
2018-06-21T06:16:24.263Z,1003.00
2018-06-21T06:17:25.666Z,1002.94
2018-06-21T06:18:27.060Z,1002.98
2018-06-21T06:19:29.254Z,1003.02
2018-06-21T06:20:30.642Z,1002.96
2018-06-21T06:21:32.065Z,1002.91
2018-06-21T06:22:33.463Z,1002.96
2018-06-21T06:23:34.860Z,1002.91
2018-06-21T06:24:36.273Z,1002.87
2018-06-21T06:25:37.673Z,1002.83
2018-06-21T06:26:39.073Z,1002.87
2018-06-21T06:27:41.115Z,1002.83
2018-06-21T06:28:43.506Z,1002.85
2018-06-21T06:29:44.879Z,1002.77
2018-06-21T06:30:46.294Z,1002.74
2018-06-21T06:31:47.691Z,1002.77
2018-06-21T06:32:49.099Z,1002.73
2018-06-21T06:33:50.513Z,1002.64
2018-06-21T06:34:51.912Z,1002.63
2018-06-21T06:35:53.308Z,1002.65
2018-06-21T06:36:54.717Z,1002.56
2018-06-21T06:37:56.119Z,1002.54
2018-06-21T06:38:57.526Z,1002.47
2018-06-21T06:39:59.516Z,1002.42
2018-06-21T06:41:00.906Z,1002.38
2018-06-21T06:42:02.318Z,1002.31
2018-06-21T06:43:03.712Z,1002.31
2018-06-21T06:44:05.104Z,1002.31
2018-06-21T06:45:06.514Z,1002.26
2018-06-21T06:46:08.603Z,1002.21
2018-06-21T06:47:09.983Z,1002.25
2018-06-21T06:48:11.387Z,1002.19
2018-06-21T06:49:12.794Z,1002.21
2018-06-21T06:50:14.191Z,1002.21
2018-06-21T06:51:15.582Z,1002.23
2018-06-21T06:52:16.989Z,1002.18
2018-06-21T06:53:18.386Z,1002.17
2018-06-21T06:54:19.823Z,1002.07
2018-06-21T06:55:21.193Z,1002.01
2018-06-21T06:56:22.585Z,1002.00
2018-06-21T06:57:23.993Z,1002.00
2018-06-21T06:58:25.398Z,1001.95
2018-06-21T06:59:26.789Z,1001.89
2018-06-21T07:00:28.189Z,1001.95
2018-06-21T07:01:29.582Z,1001.87
2018-06-21T07:02:30.986Z,1001.79
2018-06-21T07:03:32.384Z,1001.80
2018-06-21T07:04:33.780Z,1001.79
2018-06-21T07:05:35.188Z,1001.78
2018-06-21T07:06:36.582Z,1001.67
2018-06-21T07:07:37.991Z,1001.79
2018-06-21T07:08:39.380Z,1001.76
2018-06-21T07:09:40.773Z,1001.74
2018-06-21T07:10:42.171Z,1001.71
2018-06-21T07:11:43.586Z,1001.58
2018-06-21T07:12:44.994Z,1001.56
2018-06-21T07:13:46.392Z,1001.61
2018-06-21T07:14:47.789Z,1001.63
2018-06-21T07:15:49.184Z,1001.61
2018-06-21T07:16:50.595Z,1001.56
2018-06-21T07:17:51.981Z,1001.56
2018-06-21T07:18:53.390Z,1001.55
2018-06-21T07:19:54.787Z,1001.55
2018-06-21T07:20:56.181Z,1001.51
2018-06-21T07:21:57.580Z,1001.49
2018-06-21T07:22:58.980Z,1001.54
2018-06-21T07:24:00.377Z,1001.51
2018-06-21T07:25:01.779Z,1001.47
2018-06-21T07:26:03.201Z,1001.32
2018-06-21T07:27:04.633Z,1001.43
2018-06-21T07:28:05.993Z,1001.37
2018-06-21T07:29:07.383Z,1001.41
2018-06-21T07:30:08.803Z,1001.49
2018-06-21T07:31:10.184Z,1001.37
2018-06-21T07:32:11.595Z,1001.36
2018-06-21T07:33:12.990Z,1001.31
2018-06-21T07:34:14.380Z,1001.29
2018-06-21T07:35:15.774Z,1001.26
2018-06-21T07:36:17.180Z,1001.34
2018-06-21T07:37:18.585Z,1001.29
2018-06-21T07:38:19.982Z,1001.17
2018-06-21T07:39:21.388Z,1001.15
2018-06-21T07:40:22.790Z,1001.28
2018-06-21T07:41:24.180Z,1001.18
2018-06-21T07:42:25.583Z,1001.18
2018-06-21T07:43:26.984Z,1001.21
2018-06-21T07:44:28.397Z,1001.26
2018-06-21T07:45:29.792Z,1001.13
2018-06-21T07:46:31.191Z,1001.25
2018-06-21T07:47:32.596Z,1001.25
2018-06-21T07:48:34.003Z,1001.15
2018-06-21T07:49:35.408Z,1001.13
2018-06-21T07:50:36.807Z,1001.09
2018-06-21T07:51:38.209Z,1001.02
2018-06-21T07:52:39.613Z,1001.00
2018-06-21T07:53:41.012Z,1001.02
2018-06-21T07:54:42.405Z,1000.97
2018-06-21T07:55:43.800Z,1001.00
2018-06-21T07:56:46.182Z,1001.00
2018-06-21T07:57:47.581Z,1000.92
2018-06-21T07:58:48.971Z,1000.96
2018-06-21T07:59:50.366Z,1001.04
2018-06-21T08:00:51.756Z,1001.00
2018-06-21T08:01:53.162Z,1001.00
2018-06-21T08:02:54.548Z,1000.91
2018-06-21T08:03:55.944Z,1001.02
2018-06-21T08:04:57.350Z,1000.97
2018-06-21T08:05:58.742Z,1000.95
2018-06-21T08:07:00.140Z,1000.96
2018-06-21T08:08:01.521Z,1000.83
2018-06-21T08:09:02.922Z,1000.84
2018-06-21T08:10:04.326Z,1000.89
2018-06-21T08:11:05.728Z,1000.88
2018-06-21T08:12:07.127Z,1000.89
2018-06-21T08:13:09.187Z,1000.87
2018-06-21T08:14:10.591Z,1000.86
2018-06-21T08:15:11.989Z,1000.88
2018-06-21T08:16:13.391Z,1000.87
2018-06-21T08:17:15.537Z,1000.80
2018-06-21T08:18:16.937Z,1000.82
2018-06-21T08:19:18.340Z,1000.83
2018-06-21T08:20:19.806Z,1000.87
2018-06-21T08:21:21.141Z,1000.88
2018-06-21T08:22:22.549Z,1000.84
2018-06-21T08:23:23.943Z,1000.81
2018-06-21T08:24:25.345Z,1000.82
2018-06-21T08:25:26.737Z,1000.83
2018-06-21T08:26:28.127Z,1000.74
2018-06-21T08:27:29.530Z,1000.77
2018-06-21T08:28:30.917Z,1000.77
2018-06-21T08:29:32.322Z,1000.77
2018-06-21T08:30:33.724Z,1000.74
2018-06-21T08:31:35.132Z,1000.75
2018-06-21T08:32:36.544Z,1000.74
2018-06-21T08:33:37.940Z,1000.77
2018-06-21T08:34:39.393Z,1000.78
2018-06-21T08:35:40.789Z,1000.71
2018-06-21T08:36:42.186Z,1000.73
2018-06-21T08:37:43.593Z,1000.81
2018-06-21T08:38:45.022Z,1000.67
2018-06-21T08:39:46.400Z,1000.71
2018-06-21T08:40:47.808Z,1000.66
2018-06-21T08:41:49.202Z,1000.77
2018-06-21T08:42:50.628Z,1000.62
2018-06-21T08:43:52.028Z,1000.73
2018-06-21T08:44:53.425Z,1000.66
2018-06-21T08:45:54.825Z,1000.69
2018-06-21T08:46:56.216Z,1000.63
2018-06-21T08:47:57.624Z,1000.67
2018-06-21T08:48:59.019Z,1000.64
2018-06-21T08:50:00.417Z,1000.67
2018-06-21T08:51:01.810Z,1000.71
2018-06-21T08:52:03.264Z,1000.59
2018-06-21T08:53:04.623Z,1000.62
2018-06-21T08:54:06.001Z,1000.61
2018-06-21T08:55:07.402Z,1000.60
2018-06-21T08:56:08.796Z,1000.59
2018-06-21T08:57:10.192Z,1000.66
2018-06-21T08:58:11.591Z,1000.69
2018-06-21T08:59:12.985Z,1000.68
2018-06-21T09:00:14.385Z,1000.50
2018-06-21T09:01:15.778Z,1000.97
2018-06-21T09:02:17.176Z,1001.07
2018-06-21T09:03:18.584Z,1001.08
2018-06-21T09:04:19.972Z,1001.13
2018-06-21T09:05:21.363Z,1001.14
2018-06-21T09:06:22.777Z,1001.08
2018-06-21T09:07:24.166Z,1001.16
2018-06-21T09:08:25.558Z,1001.15
2018-06-21T09:09:26.958Z,1001.10
2018-06-21T09:10:28.350Z,1001.15
2018-06-21T09:11:29.740Z,1001.00
2018-06-21T09:12:31.137Z,1001.09
2018-06-21T09:13:32.550Z,1001.20
2018-06-21T09:14:33.934Z,1001.29
2018-06-21T09:15:35.329Z,1001.34
2018-06-21T09:16:36.719Z,1001.33
2018-06-21T09:17:38.109Z,1001.51
2018-06-21T09:18:39.514Z,1001.77
2018-06-21T09:19:40.906Z,1001.81
2018-06-21T09:20:42.297Z,1001.77
2018-06-21T09:21:43.692Z,1001.90
2018-06-21T09:22:45.096Z,1002.04
2018-06-21T09:23:46.487Z,1002.27
2018-06-21T09:24:47.884Z,1002.13
2018-06-21T09:25:49.277Z,1001.98
2018-06-21T09:26:50.682Z,1002.01
2018-06-21T09:27:52.068Z,1002.01
2018-06-21T09:28:53.456Z,1001.92
2018-06-21T09:29:54.858Z,1001.92
2018-06-21T09:30:56.250Z,1001.92
2018-06-21T09:31:57.649Z,1001.97
2018-06-21T09:32:59.044Z,1002.04
2018-06-21T09:34:00.426Z,1002.07
2018-06-21T09:35:01.833Z,1002.03
2018-06-21T09:36:03.224Z,1002.05
2018-06-21T09:37:04.620Z,1001.97
2018-06-21T09:38:06.008Z,1001.92
2018-06-21T09:39:07.412Z,1001.94
2018-06-21T09:40:08.807Z,1001.93
2018-06-21T09:41:10.210Z,1002.02
2018-06-21T09:42:11.595Z,1002.01
2018-06-21T09:43:12.989Z,1002.05
2018-06-21T09:44:14.385Z,1002.08
2018-06-21T09:45:15.775Z,1002.05
2018-06-21T09:46:17.167Z,1002.11
2018-06-21T09:47:18.566Z,1002.14
2018-06-21T09:48:19.945Z,1002.05
2018-06-21T09:49:21.347Z,1002.07
2018-06-21T09:50:22.736Z,1002.06
2018-06-21T09:51:24.128Z,1002.17
2018-06-21T09:52:26.166Z,1002.22
2018-06-21T09:53:27.548Z,1002.25
2018-06-21T09:54:28.938Z,1002.27
2018-06-21T09:55:30.330Z,1002.30
2018-06-21T09:56:31.711Z,1002.30
2018-06-21T09:57:33.106Z,1002.38
2018-06-21T09:58:34.488Z,1002.46
2018-06-21T09:59:35.887Z,1002.54
2018-06-21T10:00:37.278Z,1002.52
2018-06-21T10:01:38.681Z,1002.54
2018-06-21T10:02:40.068Z,1002.52
2018-06-21T10:03:41.474Z,1002.47
2018-06-21T10:04:42.863Z,1002.45
2018-06-21T10:05:44.261Z,1002.48
2018-06-21T10:06:45.674Z,1002.50
2018-06-21T10:07:47.060Z,1002.47
2018-06-21T10:08:48.713Z,1002.50
2018-06-21T10:09:50.103Z,1002.50
2018-06-21T10:10:51.485Z,1002.46
2018-06-21T10:11:52.877Z,1002.62
2018-06-21T10:12:54.296Z,1002.69
2018-06-21T10:13:55.684Z,1002.78
2018-06-21T10:14:57.076Z,1002.82
2018-06-21T10:15:58.464Z,1002.82
2018-06-21T10:16:59.866Z,1002.75
2018-06-21T10:18:01.270Z,1002.76
2018-06-21T10:19:02.654Z,1002.84
2018-06-21T10:20:04.048Z,1002.82
2018-06-21T10:21:05.450Z,1002.83
2018-06-21T10:22:06.840Z,1002.82
2018-06-21T10:23:08.262Z,1002.73
2018-06-21T10:24:09.634Z,1002.72
2018-06-21T10:25:11.014Z,1002.71
2018-06-21T10:26:12.409Z,1002.65
2018-06-21T10:27:13.790Z,1002.62
2018-06-21T10:28:15.192Z,1002.59
2018-06-21T10:29:16.583Z,1002.57
2018-06-21T10:30:17.974Z,1002.56
2018-06-21T10:31:19.363Z,1002.59
2018-06-21T10:32:20.756Z,1002.63
2018-06-21T10:33:22.152Z,1002.65
2018-06-21T10:34:23.530Z,1002.70
2018-06-21T10:35:24.931Z,1002.68
2018-06-21T10:36:26.316Z,1002.68
2018-06-21T10:37:27.711Z,1002.70
2018-06-21T10:38:29.103Z,1002.74
2018-06-21T10:39:30.481Z,1002.75
2018-06-21T10:40:31.875Z,1002.73
2018-06-21T10:41:33.269Z,1002.80
2018-06-21T10:42:34.681Z,1002.83
2018-06-21T10:43:36.054Z,1002.82
2018-06-21T10:44:37.442Z,1002.81
2018-06-21T10:45:38.835Z,1002.82
2018-06-21T10:46:40.221Z,1002.88
2018-06-21T10:47:41.607Z,1002.95
2018-06-21T10:48:43.018Z,1003.04
2018-06-21T10:49:44.399Z,1003.06
2018-06-21T10:50:45.787Z,1003.10
2018-06-21T10:51:47.181Z,1003.04
2018-06-21T10:52:48.581Z,1003.00
2018-06-21T10:53:49.973Z,1002.95
2018-06-21T10:54:51.369Z,1002.96
2018-06-21T10:55:52.757Z,1003.09
2018-06-21T10:56:54.148Z,1003.19
2018-06-21T10:57:55.528Z,1003.23
2018-06-21T10:58:56.949Z,1003.05
2018-06-21T10:59:58.339Z,1002.82
2018-06-21T11:00:59.725Z,1002.74
2018-06-21T11:02:01.971Z,1002.78
2018-06-21T11:03:03.365Z,1002.86
2018-06-21T11:04:04.758Z,1002.87
2018-06-21T11:05:06.147Z,1002.95
2018-06-21T11:06:07.543Z,1002.99
2018-06-21T11:07:08.929Z,1003.01
2018-06-21T11:08:10.319Z,1003.05
2018-06-21T11:09:11.714Z,1003.14
2018-06-21T11:10:13.105Z,1003.10
2018-06-21T11:11:14.504Z,1003.12
2018-06-21T11:12:15.897Z,1003.03
2018-06-21T11:13:17.288Z,1002.95
2018-06-21T11:14:18.686Z,1002.90
2018-06-21T11:15:20.076Z,1002.85
2018-06-21T11:16:21.470Z,1002.83
2018-06-21T11:17:22.856Z,1002.78
2018-06-21T11:18:24.240Z,1002.70
2018-06-21T11:19:25.627Z,1002.79
2018-06-21T11:20:27.023Z,1002.67
2018-06-21T11:21:28.438Z,1002.70
2018-06-21T11:22:29.806Z,1002.70
2018-06-21T11:23:31.198Z,1002.73
2018-06-21T11:24:32.596Z,1002.68
2018-06-21T11:25:33.982Z,1002.71
2018-06-21T11:26:35.370Z,1002.74
2018-06-21T11:27:36.795Z,1002.78
2018-06-21T11:28:38.155Z,1002.71
2018-06-21T11:29:39.543Z,1002.64
2018-06-21T11:30:40.935Z,1002.56
2018-06-21T11:31:42.285Z,1002.52
2018-06-21T11:32:43.671Z,1002.46
2018-06-21T11:33:45.063Z,1002.43
2018-06-21T11:34:46.403Z,1002.47
2018-06-21T11:35:47.796Z,1002.51
2018-06-21T11:36:49.149Z,1002.60
2018-06-21T11:37:50.505Z,1002.54
2018-06-21T11:38:51.846Z,1002.52
2018-06-21T11:39:53.233Z,1002.44
2018-06-21T11:40:54.631Z,1002.52
2018-06-21T11:41:56.026Z,1002.70
2018-06-21T11:42:57.416Z,1002.88
2018-06-21T11:43:58.807Z,1003.04
2018-06-21T11:45:00.200Z,1003.13
2018-06-21T11:46:01.581Z,1003.20
2018-06-21T11:47:02.975Z,1003.24
2018-06-21T11:48:04.368Z,1003.24
2018-06-21T11:49:05.755Z,1003.20
2018-06-21T11:50:07.158Z,1003.14
2018-06-21T11:51:08.552Z,1003.13
2018-06-21T11:52:09.907Z,1003.15
2018-06-21T11:53:11.951Z,1003.16
2018-06-21T11:54:13.355Z,1003.23
2018-06-21T11:55:14.758Z,1003.36
2018-06-21T11:56:16.114Z,1003.41
2018-06-21T11:57:17.521Z,1003.40
2018-06-21T11:58:18.907Z,1003.39
2018-06-21T11:59:20.303Z,1003.37
2018-06-21T12:00:21.653Z,1003.20
2018-06-21T12:01:23.051Z,1003.06
2018-06-21T12:02:24.445Z,1002.87
2018-06-21T12:03:25.880Z,1002.65
2018-06-21T12:04:27.234Z,1002.43
2018-06-21T12:05:28.638Z,1002.38
2018-06-21T12:06:30.030Z,1002.71
2018-06-21T12:07:31.432Z,1003.02
2018-06-21T12:08:33.334Z,1003.18
2018-06-21T12:09:34.720Z,1003.28
2018-06-21T12:10:36.149Z,1003.27
2018-06-21T12:11:37.532Z,1003.34
2018-06-21T12:12:38.951Z,1003.39
2018-06-21T12:13:40.364Z,1003.46
2018-06-21T12:14:41.764Z,1003.52
2018-06-21T12:15:43.168Z,1003.55
2018-06-21T12:16:44.585Z,1003.58
2018-06-21T12:17:45.980Z,1003.52
2018-06-21T12:18:47.379Z,1003.41
2018-06-21T12:19:48.771Z,1003.28
2018-06-21T12:20:50.194Z,1003.24
2018-06-21T12:21:51.567Z,1003.21
2018-06-21T12:22:52.961Z,1003.19
2018-06-21T12:23:54.354Z,1003.23
2018-06-21T12:24:55.749Z,1003.24
2018-06-21T12:25:57.187Z,1003.26
2018-06-21T12:26:58.540Z,1003.20
2018-06-21T12:27:59.967Z,1003.08
2018-06-21T12:29:01.341Z,1003.06
2018-06-21T12:30:02.745Z,1003.03
2018-06-21T12:31:04.128Z,1003.04
2018-06-21T12:32:05.555Z,1003.10
2018-06-21T12:33:06.924Z,1003.10
2018-06-21T12:34:08.323Z,1003.14
2018-06-21T12:35:09.718Z,1003.22
2018-06-21T12:36:11.118Z,1003.25
2018-06-21T12:37:12.512Z,1003.28
2018-06-21T12:38:13.904Z,1003.26
2018-06-21T12:39:15.318Z,1003.27
2018-06-21T12:40:16.696Z,1003.27
2018-06-21T12:41:18.088Z,1003.22
2018-06-21T12:42:19.476Z,1003.19
2018-06-21T12:43:20.880Z,1003.18
2018-06-21T12:44:22.270Z,1003.13
2018-06-21T12:45:23.664Z,1003.12
2018-06-21T12:46:25.066Z,1003.08
2018-06-21T12:47:26.462Z,1003.11
2018-06-21T12:48:27.849Z,1003.13
2018-06-21T12:49:30.029Z,1003.11
2018-06-21T12:50:31.423Z,1003.11
2018-06-21T12:51:32.819Z,1003.12
2018-06-21T12:52:34.265Z,1003.09
2018-06-21T12:53:35.609Z,1003.09
2018-06-21T12:54:37.004Z,1003.01
2018-06-21T12:55:38.389Z,1003.00
2018-06-21T12:56:39.777Z,1003.01
2018-06-21T12:57:41.173Z,1003.08
2018-06-21T12:58:43.110Z,1003.12
2018-06-21T12:59:43.913Z,1003.10
2018-06-21T13:00:45.313Z,1003.08
2018-06-21T13:01:46.708Z,1003.04
2018-06-21T13:02:48.103Z,1003.00
2018-06-21T13:03:49.504Z,1003.05
2018-06-21T13:04:50.890Z,1003.07
2018-06-21T13:05:52.283Z,1003.09
2018-06-21T13:06:53.670Z,1003.10
2018-06-21T13:07:55.058Z,1003.13
2018-06-21T13:08:56.437Z,1003.09
2018-06-21T13:09:57.838Z,1003.08
2018-06-21T13:10:59.230Z,1003.02
2018-06-21T13:12:00.633Z,1003.04
2018-06-21T13:13:02.017Z,1003.09
2018-06-21T13:14:03.404Z,1003.24
2018-06-21T13:15:04.788Z,1003.60
2018-06-21T13:16:06.185Z,1003.59
2018-06-21T13:17:07.567Z,1003.69
2018-06-21T13:18:08.968Z,1003.52
2018-06-21T13:19:10.362Z,1003.75
2018-06-21T13:20:11.773Z,1003.68
2018-06-21T13:21:13.181Z,1003.90
2018-06-21T13:22:14.588Z,1003.79
2018-06-21T13:23:15.968Z,1003.75
2018-06-21T13:24:17.361Z,1003.76
2018-06-21T13:25:18.765Z,1003.83
2018-06-21T13:26:20.155Z,1003.92
2018-06-21T13:27:21.540Z,1003.98
2018-06-21T13:28:22.939Z,1004.01
2018-06-21T13:29:24.348Z,1003.89
2018-06-21T13:30:25.740Z,1004.04
2018-06-21T13:31:27.130Z,1003.87
2018-06-21T13:32:28.515Z,1003.87
2018-06-21T13:33:29.924Z,1003.84
2018-06-21T13:34:31.315Z,1003.95
2018-06-21T13:35:32.709Z,1003.84
2018-06-21T13:36:34.110Z,1003.84
2018-06-21T13:37:35.500Z,1003.92
2018-06-21T13:38:36.898Z,1003.85
2018-06-21T13:39:38.305Z,1003.85
2018-06-21T13:40:39.690Z,1003.90
2018-06-21T13:41:41.096Z,1003.86
2018-06-21T13:42:42.498Z,1003.96
2018-06-21T13:43:43.880Z,1003.92
2018-06-21T13:44:45.272Z,1003.97
2018-06-21T13:45:46.669Z,1004.03
2018-06-21T13:46:48.064Z,1003.98
2018-06-21T13:47:49.473Z,1004.15
2018-06-21T13:48:50.873Z,1004.10
2018-06-21T13:49:52.248Z,1004.09
2018-06-21T13:50:53.640Z,1004.07
2018-06-21T13:51:55.025Z,1004.07
2018-06-21T13:52:56.434Z,1004.16
2018-06-21T13:53:57.823Z,1004.16
2018-06-21T13:54:59.217Z,1004.19
2018-06-21T13:56:00.611Z,1004.29
2018-06-21T13:57:02.002Z,1004.24
2018-06-21T13:58:03.416Z,1004.19
2018-06-21T13:59:04.813Z,1004.28
2018-06-21T14:00:06.208Z,1004.23
2018-06-21T14:01:07.592Z,1004.12
2018-06-21T14:02:08.982Z,1004.14
2018-06-21T14:03:10.389Z,1004.08
2018-06-21T14:04:11.785Z,1004.09
2018-06-21T14:05:13.175Z,1004.11
2018-06-21T14:06:14.579Z,1004.07
2018-06-21T14:07:15.978Z,1004.02
2018-06-21T14:08:17.429Z,1004.06
2018-06-21T14:09:18.741Z,1004.12
2018-06-21T14:10:20.137Z,1004.14
2018-06-21T14:11:21.528Z,1004.12
2018-06-21T14:12:22.930Z,1004.08
2018-06-21T14:13:24.323Z,1004.12
2018-06-21T14:14:25.722Z,1004.16
2018-06-21T14:15:27.110Z,1004.19
2018-06-21T14:16:28.500Z,1004.18
2018-06-21T14:17:29.909Z,1004.17
2018-06-21T14:18:31.302Z,1004.14
2018-06-21T14:19:32.695Z,1004.10
2018-06-21T14:20:34.113Z,1004.08
2018-06-21T14:21:35.435Z,1004.10
2018-06-21T14:22:36.831Z,1004.11
2018-06-21T14:23:38.316Z,1004.16
2018-06-21T14:24:39.591Z,1004.14
2018-06-21T14:25:40.976Z,1004.15
2018-06-21T14:26:42.381Z,1004.22
2018-06-21T14:27:43.773Z,1004.15
2018-06-21T14:28:45.177Z,1004.10
2018-06-21T14:29:46.556Z,1004.14
2018-06-21T14:30:47.968Z,1004.13
2018-06-21T14:31:49.367Z,1004.10
2018-06-21T14:32:50.764Z,1004.11
2018-06-21T14:33:52.151Z,1004.07
2018-06-21T14:34:53.540Z,1004.05
2018-06-21T14:35:54.933Z,1004.11
2018-06-21T14:36:56.339Z,1004.15
2018-06-21T14:37:57.741Z,1004.01
2018-06-21T14:38:59.144Z,1003.96
2018-06-21T14:40:00.536Z,1003.91
2018-06-21T14:41:01.934Z,1004.02
2018-06-21T14:42:03.327Z,1003.95
2018-06-21T14:43:04.721Z,1003.91
2018-06-21T14:44:06.116Z,1004.01
2018-06-21T14:45:07.514Z,1004.03
2018-06-21T14:46:08.909Z,1003.96
2018-06-21T14:47:10.302Z,1003.97
2018-06-21T14:48:11.799Z,1003.97
2018-06-21T14:49:13.099Z,1003.98
2018-06-21T14:50:14.497Z,1004.08
2018-06-21T14:51:15.889Z,1004.03
2018-06-21T14:52:17.287Z,1003.98
2018-06-21T14:53:18.688Z,1004.13
2018-06-21T14:54:20.082Z,1004.06
2018-06-21T14:55:21.481Z,1003.96
2018-06-21T14:56:22.866Z,1004.00
2018-06-21T14:57:24.256Z,1004.06
2018-06-21T14:58:25.658Z,1004.10
2018-06-21T14:59:27.056Z,1004.09
2018-06-21T15:00:28.444Z,1003.94
2018-06-21T15:01:29.846Z,1004.20
2018-06-21T15:02:31.238Z,1004.04
2018-06-21T15:03:32.617Z,1004.15
2018-06-21T15:04:34.012Z,1004.02
2018-06-21T15:05:35.401Z,1004.13
2018-06-21T15:06:36.818Z,1004.20
2018-06-21T15:07:38.203Z,1004.16
2018-06-21T15:08:39.595Z,1004.10
2018-06-21T15:09:40.977Z,1004.12
2018-06-21T15:10:42.376Z,1004.15
2018-06-21T15:11:43.762Z,1004.00
2018-06-21T15:12:45.148Z,1004.11
2018-06-21T15:13:46.542Z,1004.04
2018-06-21T15:14:47.938Z,1004.09
2018-06-21T15:15:49.323Z,1004.14
2018-06-21T15:16:50.720Z,1004.04
2018-06-21T15:17:52.118Z,1004.12
2018-06-21T15:18:53.510Z,1004.08
2018-06-21T15:19:54.897Z,1004.10
2018-06-21T15:20:56.287Z,1004.10
2018-06-21T15:21:57.678Z,1004.18
2018-06-21T15:22:59.095Z,1004.18
2018-06-21T15:24:00.470Z,1004.19
2018-06-21T15:25:01.859Z,1004.20
2018-06-21T15:26:03.439Z,1004.26
2018-06-21T15:27:04.826Z,1004.19
2018-06-21T15:28:06.220Z,1004.30
2018-06-21T15:29:07.624Z,1004.38
2018-06-21T15:30:08.969Z,1004.44
2018-06-21T15:31:10.364Z,1004.52
2018-06-21T15:32:11.719Z,1004.70
2018-06-21T15:33:13.098Z,1004.63
2018-06-21T15:34:14.443Z,1004.66
2018-06-21T15:35:15.839Z,1004.76
2018-06-21T15:36:17.194Z,1004.61
2018-06-21T15:37:19.245Z,1004.73
2018-06-21T15:38:20.644Z,1004.65
2018-06-21T15:39:21.997Z,1004.75
2018-06-21T15:40:23.350Z,1004.75
2018-06-21T15:41:24.749Z,1004.82
2018-06-21T15:42:26.131Z,1004.80
2018-06-21T15:43:27.527Z,1004.82
2018-06-21T15:44:28.882Z,1004.80
2018-06-21T15:45:30.339Z,1004.87
2018-06-21T15:46:31.674Z,1004.94
2018-06-21T15:47:33.093Z,1004.87
2018-06-21T15:48:34.487Z,1005.06
2018-06-21T15:49:35.875Z,1004.91
2018-06-21T15:50:37.269Z,1005.04
2018-06-21T15:51:38.729Z,1004.99
2018-06-21T15:52:40.026Z,1004.95
2018-06-21T15:53:41.425Z,1005.07
2018-06-21T15:54:42.851Z,1005.03
2018-06-21T15:55:44.214Z,1004.97
2018-06-21T15:56:45.599Z,1005.03
2018-06-21T15:57:46.982Z,1005.02
2018-06-21T15:58:48.380Z,1005.05
2018-06-21T15:59:49.763Z,1004.94
2018-06-21T16:00:51.154Z,1004.94
2018-06-21T16:01:52.536Z,1005.05
2018-06-21T16:02:53.933Z,1005.02
2018-06-21T16:03:55.331Z,1005.07
2018-06-21T16:04:56.711Z,1005.10
2018-06-21T16:05:58.116Z,1005.18
2018-06-21T16:06:59.509Z,1005.13
2018-06-21T16:08:00.889Z,1005.25
2018-06-21T16:09:02.281Z,1005.29
2018-06-21T16:10:04.347Z,1005.29
2018-06-21T16:11:05.746Z,1005.22
2018-06-21T16:12:07.137Z,1005.32
2018-06-21T16:13:08.515Z,1005.36
2018-06-21T16:14:09.927Z,1005.36
2018-06-21T16:15:11.315Z,1005.33
2018-06-21T16:16:12.749Z,1005.38
2018-06-21T16:17:14.142Z,1005.36
2018-06-21T16:18:15.531Z,1005.45
2018-06-21T16:19:16.953Z,1005.47
2018-06-21T16:20:18.351Z,1005.58
2018-06-21T16:21:19.728Z,1005.57
2018-06-21T16:22:21.131Z,1005.61
2018-06-21T16:23:22.509Z,1005.61
2018-06-21T16:24:23.903Z,1005.75
2018-06-21T16:25:25.293Z,1005.67
2018-06-21T16:26:26.684Z,1005.57
2018-06-21T16:27:28.086Z,1005.59
2018-06-21T16:28:29.478Z,1005.58
2018-06-21T16:29:30.879Z,1005.61
2018-06-21T16:30:32.220Z,1005.65
2018-06-21T16:31:33.606Z,1005.63
2018-06-21T16:32:35.005Z,1005.66
2018-06-21T16:33:36.449Z,1005.72
2018-06-21T16:34:37.740Z,1005.79
2018-06-21T16:35:39.126Z,1005.74
2018-06-21T16:36:40.521Z,1005.75
2018-06-21T16:37:42.484Z,1005.78
2018-06-21T16:38:43.885Z,1005.87
2018-06-21T16:39:45.284Z,1005.84
2018-06-21T16:40:46.702Z,1005.81
2018-06-21T16:41:48.062Z,1005.90
2018-06-21T16:42:49.451Z,1005.87
2018-06-21T16:43:50.847Z,1005.92
2018-06-21T16:44:52.232Z,1005.93
2018-06-21T16:45:53.631Z,1005.82
2018-06-21T16:46:55.013Z,1005.92
2018-06-21T16:47:56.422Z,1005.90
2018-06-21T16:48:57.815Z,1005.93
2018-06-21T16:49:59.194Z,1005.95
2018-06-21T16:51:00.656Z,1005.93